»·PEaware :: N172TT KSNA-KBUR

N172TT :: KSNA-KBUR

FLIGHT INFORMATION

Flight Status: Arrived
Operator: Privately registered:
United States
More flights under this callsign
Pilot: Thomas T. (19955)
Aircraft: CESSNA 172 SKYHAWK
(C172)
More flights by this aircraft type
Origin: KSNA John Wayne-Orange Co
United States
Destination: KBUR Bob Hope-Burbank
United States
More flights between these airports :: More routes between these airports
Route: +SLI V23 POPPR SMO125R SMO SMO311R SILEX
File this flight plan on PilotEdge
Remarks: TRAING FLIGHT
Altitude:
(Current/Filed)
4,000ft
Speed:
(Current/Filed)
118kts
Departed: 29-Sep-18 12:50 PM
Arrived: 29-Sep-18 01:33 PM
Distance/Time
Traveled:
40nm/0:43
Distance/Time
To Go:
Arrived

Flight Plot

Page will automatically refresh every two minutes.


Map Options




Map Legend


Flown Route
Filed Route
Departure Airport
Arrival Airport
Navaid (VOR, NDB)
Fix

Horizontal Profiles

Position Reports

Time Latitude Longitude Heading Altitude Ground
Speed
29-Sep-18 12:39 33.676080 -117.870909 219 60ft 0kts
29-Sep-18 12:40 33.676080 -117.870909 219 60ft 0kts
29-Sep-18 12:41 33.676080 -117.870909 219 60ft 0kts
29-Sep-18 12:42 33.676080 -117.870909 219 60ft 0kts
29-Sep-18 12:43 33.676080 -117.870909 219 60ft 0kts
29-Sep-18 12:44 33.676080 -117.870909 219 60ft 0kts
29-Sep-18 12:45 33.676080 -117.870909 219 60ft 0kts
29-Sep-18 12:46 33.676107 -117.870106 32 60ft 11kts
29-Sep-18 12:47 33.678077 -117.868602 85 60ft 4kts
29-Sep-18 12:48 33.678078 -117.868589 85 60ft 0kts
29-Sep-18 12:49 33.678078 -117.868589 85 60ft 0kts
29-Sep-18 12:50 33.678078 -117.868589 85 60ft 0kts
29-Sep-18 12:51 33.678082 -117.868538 84 60ft 6kts
29-Sep-18 12:52 33.671245 -117.871962 211 243ft 72kts
29-Sep-18 12:53 33.653174 -117.891327 231 796ft 93kts
29-Sep-18 12:54 33.637295 -117.914901 230 1484ft 87kts
29-Sep-18 12:55 33.620549 -117.939340 231 2282ft 99kts
29-Sep-18 12:56 33.603012 -117.964898 231 3082ft 99kts
29-Sep-18 12:57 33.585897 -117.989885 233 3878ft 95kts
29-Sep-18 12:58 33.567852 -118.018007 252 4025ft 111kts
29-Sep-18 12:59 33.577732 -118.051209 317 4016ft 112kts
29-Sep-18 13:00 33.602620 -118.074005 320 4015ft 113kts
29-Sep-18 13:01 33.627755 -118.096701 319 4014ft 113kts
29-Sep-18 13:02 33.652981 -118.119451 319 4013ft 114kts
29-Sep-18 13:03 33.678557 -118.142520 319 4012ft 116kts
29-Sep-18 13:04 33.704144 -118.165611 318 4012ft 117kts
29-Sep-18 13:05 33.730560 -118.189371 319 4013ft 119kts
29-Sep-18 13:06 33.757224 -118.212593 319 4014ft 120kts
29-Sep-18 13:07 33.784097 -118.236673 319 4017ft 120kts
29-Sep-18 13:08 33.809949 -118.260063 323 4018ft 123kts
29-Sep-18 13:09 33.837430 -118.284882 325 4024ft 124kts
29-Sep-18 13:10 33.863584 -118.310655 322 4027ft 118kts
29-Sep-18 13:11 33.887709 -118.334884 321 4026ft 108kts
29-Sep-18 13:12 33.910252 -118.357567 320 4020ft 105kts
29-Sep-18 13:13 33.932640 -118.380110 320 4016ft 105kts
29-Sep-18 13:14 33.954835 -118.402467 321 4011ft 104kts
29-Sep-18 13:15 33.977049 -118.424854 321 4005ft 104kts
29-Sep-18 13:16 33.998813 -118.447546 320 4000ft 104kts
29-Sep-18 13:17 34.017544 -118.474098 305 3995ft 106kts
29-Sep-18 13:18 34.033721 -118.503514 314 3988ft 105kts
29-Sep-18 13:19 34.055313 -118.526958 324 3980ft 104kts
29-Sep-18 13:20 34.081788 -118.540925 332 3972ft 104kts
29-Sep-18 13:21 34.100124 -118.567375 308 3968ft 105kts
29-Sep-18 13:22 34.117374 -118.594662 311 3969ft 105kts
29-Sep-18 13:23 34.135991 -118.620992 312 3971ft 104kts
29-Sep-18 13:24 34.154735 -118.647733 312 3974ft 103kts
29-Sep-18 13:25 34.175744 -118.658775 38 3878ft 108kts
29-Sep-18 13:26 34.195163 -118.627615 63 3434ft 119kts
29-Sep-18 13:27 34.198597 -118.590810 73 3441ft 102kts
29-Sep-18 13:28 34.201706 -118.557012 90 3442ft 103kts
29-Sep-18 13:29 34.200455 -118.523803 91 3350ft 102kts
29-Sep-18 13:30 34.199222 -118.487472 97 2725ft 105kts
29-Sep-18 13:31 34.199299 -118.454775 90 2178ft 91kts
29-Sep-18 13:32 34.198142 -118.424962 91 1685ft 86kts
29-Sep-18 13:33 34.198202 -118.400120 92 1295ft 60kts
29-Sep-18 13:34 34.198078 -118.378353 95 953ft 70kts
29-Sep-18 13:35 34.197796 -118.361596 85 734ft 27kts
29-Sep-18 13:36 34.198340 -118.360406 358 734ft 7kts

Navigation Log

Ident Type
1. KSNA Airport
2. SLI Navaid
3. POPPR Fix
4. SMO Navaid
5. SILEX Fix
6. KBUR Airport